Airfield :
LOGIN :

Register | Disclaimer

   EN    FR    IT 

 










Legend :    VFR   Marginal VFR   IFR   Intensive IFR   Very Intensive IFR
Visi :
Ceiling :
>= 8 km
>= 3000ft
5 to 8 km
1000 to 3000 ft
1500m to 5 km
500 to 1000 ft
800 to 1500m
200 to 500 ft
< 800m
< 200 ft
Symbols :   Thunderstorms  Fog  Heavy snow  Heavy precipitations  Wind > 20 kt
SIGMETs :     Misc.  Thunderstorms  Icing  Turbulence  Mountain Waves  Volcanic Ashes






- Airport Elevation : 915 ft
- IATA code : LUG


LSZA - Lugano

CURRENT METAR :
  • 300020Z AUTO 03002KT 9999 NCD 16/14 Q1009

EXPIRED METARs :
  • 292350Z AUTO VRB01KT 9999 SCT090 16/14 Q1010
  • 292320Z AUTO VRB01KT 9999 FEW041 OVC120 16/14 Q1010
  • 292250Z AUTO 36004KT 9999 FEW090 OVC120 15/14 Q1010
  • 292220Z AUTO 36003KT 9999 FEW090 16/14 Q1011
  • 292150Z AUTO 01002KT 9999 BKN090 17/14 Q1011
  • 292120Z AUTO VRB01KT 9999 BKN090 17/14 Q1011
  • 292050Z AUTO VRB02KT 9999 NCD 16/14 Q1011
  • 292020Z AUTO 36003KT 9999 FEW095 17/14 Q1011
  • 291950Z AUTO VRB01KT 9999 FEW090 18/15 Q1012

Expired Forecast.
ATIS : +41 22 417 40 88



MET'MAP, your aeronautical weather chart ! - Copyright ORBIFLY December 2007 - Disclaimer

ORBIFLY MET'MAP TEAM :

Programming & Development : Alexandra Zaïnal
Original concept : Baudouin d'Aumeries
Technical & hardware support : Manuel Goepfert
Assistance : Marc-Olivier Méhu




SOURCES & CREDITS :

   NOAA